Woodville, New York
Current Conditions -  °F | °C
As of 5:05 AM on Sunday 25 Jan 2015 (Local Time) from KART Reporting Station
Overcast Overcast  
Wind Chill:   Ceiling: 3000
Heat Index: 21°   Visibility: 10mi
Dew Point: 13°   Wind: 15mph
Humidity: 71%   Direction: 340°NNW
Pressure: 29.63"   Gusts: NA
Location:  43.8534°N, 76.251°W
Report Text: KART 251005Z AUTO 34013KT 10SM FEW023 OVC030 M06/M11 A2963 RMK AO2 PRESRR T10611106
Loading
Personal Weather Stations






























Interactive Weather Map New forecast layout! Learn more

10-Day Weather Forecast

Advertisements
Track Severe Weather on mobile